Observation data for Plains on 05/26/2019      Previous  Date  Next       Current Mesonet Observations  Soil Data  Daily Summary Page  Observations in Plain Language
KPPS 260500Z 17010KT 20/16 A2998 RMK A01 T02010160  RH  081%=      5-min Rain = 0
KPPS 260505Z 18009KT 20/16 A2998 RMK A01 T01990160  RH  082%=      5-min Rain = 0
KPPS 260510Z 18008KT 20/16 A2998 RMK A01 T01970159  RH  083%=      5-min Rain = 0
KPPS 260515Z 17008KT 20/16 A2998 RMK A01 T01950159  RH  084%=      5-min Rain = 0
KPPS 260520Z 17007KT 19/16 A2998 RMK A01 T01940159  RH  084%=      5-min Rain = 0
KPPS 260525Z 17007KT 19/16 A2998 RMK A01 T01930159  RH  085%=      5-min Rain = 0
KPPS 260530Z 17008KT 19/16 A2998 RMK A01 T01930160  RH  085%=      5-min Rain = 0
KPPS 260535Z 17008KT 19/16 A2997 RMK A01 T01940160  RH  085%=      5-min Rain = 0
KPPS 260540Z 16008KT 19/16 A2997 RMK A01 T01930161  RH  086%=      5-min Rain = 0
KPPS 260545Z 16008KT 19/16 A2997 RMK A01 T01930161  RH  086%=      5-min Rain = 0
KPPS 260550Z 16007KT 19/16 A2997 RMK A01 T01920162  RH  087%=      5-min Rain = 0
KPPS 260555Z 16008KT 19/16 A2997 RMK A01 T01920162  RH  087%=      5-min Rain = 0
KPPS 260600Z 17008KT 19/16 A2997 RMK A01 T01920162  RH  087%=      5-min Rain = 0
KPPS 260605Z 16007KT 19/16 A2997 RMK A01 T01910162  RH  088%=      5-min Rain = 0
KPPS 260610Z 17007KT 19/16 A2997 RMK A01 T01910163  RH  088%=      5-min Rain = 0
KPPS 260615Z 16006KT 19/16 A2997 RMK A01 T01900162  RH  088%=      5-min Rain = 0
KPPS 260620Z 16007KT 19/16 A2997 RMK A01 T01900163  RH  088%=      5-min Rain = 0
KPPS 260625Z 16007KT 19/16 A2997 RMK A01 T01900163  RH  088%=      5-min Rain = 0
KPPS 260630Z 16007KT 19/16 A2997 RMK A01 T01910163  RH  088%=      5-min Rain = 0
KPPS 260635Z 16007KT 19/16 A2997 RMK A01 T01910163  RH  088%=      5-min Rain = 0
KPPS 260640Z 16007KT 19/16 A2997 RMK A01 T01900163  RH  088%=      5-min Rain = 0
KPPS 260645Z 16007KT 19/16 A2997 RMK A01 T01900163  RH  088%=      5-min Rain = 0
KPPS 260650Z 16006KT 19/16 A2997 RMK A01 T01900163  RH  088%=      5-min Rain = 0
KPPS 260655Z 16004KT 19/16 A2997 RMK A01 T01880162  RH  089%=      5-min Rain = 0
KPPS 260700Z 16004KT 19/16 A2997 RMK A01 T01870162  RH  089%=      5-min Rain = 0
KPPS 260705Z 17004KT 19/16 A2997 RMK A01 T01860162  RH  090%=      5-min Rain = 0
KPPS 260710Z 19003KT 19/16 A2997 RMK A01 T01860162  RH  090%=      5-min Rain = 0
KPPS 260715Z 21003KT 19/16 A2997 RMK A01 T01850161  RH  090%=      5-min Rain = 0
KPPS 260720Z 22002KT 18/16 A2997 RMK A01 T01840160  RH  091%=      5-min Rain = 0
KPPS 260725Z 20003KT 18/16 A2997 RMK A01 T01830161  RH  091%=      5-min Rain = 0
KPPS 260730Z 19004KT 18/16 A2997 RMK A01 T01840161  RH  091%=      5-min Rain = 0
KPPS 260735Z 18005KT 18/16 A2996 RMK A01 T01810159  RH  091%=      5-min Rain = 0
KPPS 260740Z 17005KT 18/16 A2996 RMK A01 T01790159  RH  092%=      5-min Rain = 0
KPPS 260745Z 17006KT 18/16 A2996 RMK A01 T01780159  RH  093%=      5-min Rain = 0
KPPS 260750Z 18007KT 18/16 A2996 RMK A01 T01780159  RH  093%=      5-min Rain = 0
KPPS 260755Z 18007KT 18/16 A2996 RMK A01 T01800160  RH  093%=      5-min Rain = 0
KPPS 260800Z 17007KT 18/16 A2996 RMK A01 T01800160  RH  092%=      5-min Rain = 0
KPPS 260805Z 17006KT 18/16 A2995 RMK A01 T01800159  RH  092%=      5-min Rain = 0
KPPS 260810Z 17005KT 18/16 A2995 RMK A01 T01780158  RH  092%=      5-min Rain = 0
KPPS 260815Z 16005KT 18/16 A2995 RMK A01 T01760157  RH  093%=      5-min Rain = 0
KPPS 260820Z 16004KT 18/16 A2996 RMK A01 T01750157  RH  093%=      5-min Rain = 0
KPPS 260825Z 15003KT 18/16 A2996 RMK A01 T01750157  RH  093%=      5-min Rain = 0
KPPS 260830Z 11002KT 17/16 A2996 RMK A01 T01740156  RH  094%=      5-min Rain = 0
KPPS 260835Z 08003KT 17/16 A2996 RMK A01 T01720155  RH  094%=      5-min Rain = 0
KPPS 260840Z 06003KT 17/16 A2996 RMK A01 T01720156  RH  095%=      5-min Rain = 0
KPPS 260845Z 08002KT 17/16 A2996 RMK A01 T01720156  RH  095%=      5-min Rain = 0
KPPS 260850Z 10002KT 17/16 A2996 RMK A01 T01720156  RH  095%=      5-min Rain = 0
KPPS 260855Z 11003KT 17/16 A2996 RMK A01 T01720155  RH  094%=      5-min Rain = 0
KPPS 260900Z 12004KT 17/15 A2997 RMK A01 T01690153  RH  094%=      5-min Rain = 0
KPPS 260905Z 12005KT 17/15 A2996 RMK A01 T01660151  RH  095%=      5-min Rain = 0
KPPS 260910Z 12006KT 17/15 A2996 RMK A01 T01670152  RH  095%=      5-min Rain = 0
KPPS 260915Z 12007KT 17/16 A2996 RMK A01 T01690155  RH  096%=      5-min Rain = 0
KPPS 260920Z 12006KT 17/15 A2996 RMK A01 T01680153  RH  095%=      5-min Rain = 0
KPPS 260925Z 13006KT 17/15 A2996 RMK A01 T01660152  RH  095%=      5-min Rain = 0
KPPS 260930Z 12005KT 17/15 A2996 RMK A01 T01660152  RH  095%=      5-min Rain = 0
KPPS 260935Z 11005KT 17/15 A2996 RMK A01 T01660153  RH  096%=      5-min Rain = 0
KPPS 260940Z 10006KT 17/15 A2996 RMK A01 T01670153  RH  096%=      5-min Rain = 0
KPPS 260945Z 10006KT 17/15 A2996 RMK A01 T01670153  RH  096%=      5-min Rain = 0
KPPS 260950Z 11005KT 17/15 A2996 RMK A01 T01690154  RH  095%=      5-min Rain = 0
KPPS 260955Z 11005KT 17/15 A2996 RMK A01 T01690154  RH  095%=      5-min Rain = 0
KPPS 261000Z 11005KT 17/15 A2996 RMK A01 T01690154  RH  095%=      5-min Rain = 0
KPPS 261005Z 12005KT 17/15 A2996 RMK A01 T01680153  RH  095%=      5-min Rain = 0
KPPS 261010Z 11006KT 17/15 A2996 RMK A01 T01670152  RH  095%=      5-min Rain = 0
KPPS 261015Z 11006KT 17/15 A2996 RMK A01 T01680154  RH  096%=      5-min Rain = 0
KPPS 261020Z 11005KT 17/15 A2996 RMK A01 T01680154  RH  096%=      5-min Rain = 0
KPPS 261025Z 10005KT 17/15 A2996 RMK A01 T01680154  RH  096%=      5-min Rain = 0
KPPS 261030Z 11005KT 17/15 A2997 RMK A01 T01670153  RH  096%=      5-min Rain = 0
KPPS 261035Z 11005KT 17/15 A2997 RMK A01 T01670154  RH  096%=      5-min Rain = 0
KPPS 261040Z 10005KT 17/16 A2997 RMK A01 T01680155  RH  096%=      5-min Rain = 0
KPPS 261045Z 10005KT 17/15 A2997 RMK A01 T01680154  RH  096%=      5-min Rain = 0
KPPS 261050Z 11005KT 17/15 A2997 RMK A01 T01670154  RH  096%=      5-min Rain = 0
KPPS 261055Z 11005KT 17/15 A2997 RMK A01 T01670154  RH  096%=      5-min Rain = 0
KPPS 261100Z 12004KT 17/16 A2997 RMK A01 T01690156  RH  096%=      5-min Rain = 0
KPPS 261105Z 13006KT 17/16 A2997 RMK A01 T01710159  RH  097%=      5-min Rain = 0
KPPS 261110Z 13007KT 18/16 A2997 RMK A01 T01750162  RH  096%=      5-min Rain = 0
KPPS 261115Z 13007KT 18/16 A2997 RMK A01 T01770163  RH  096%=      5-min Rain = 0
KPPS 261120Z 13008KT 18/16 A2997 RMK A01 T01780163  RH  095%=      5-min Rain = 0
KPPS 261125Z 13009KT 18/16 A2997 RMK A01 T01780163  RH  095%=      5-min Rain = 0
KPPS 261130Z 13008KT 18/16 A2997 RMK A01 T01780163  RH  096%=      5-min Rain = 0
KPPS 261135Z 13008KT 18/16 A2997 RMK A01 T01780164  RH  096%=      5-min Rain = 0
KPPS 261140Z 13008KT 18/16 A2997 RMK A01 T01780164  RH  096%=      5-min Rain = 0
KPPS 261145Z 13009KT 18/17 A2997 RMK A01 T01790165  RH  096%=      5-min Rain = 0
KPPS 261150Z 13008KT 18/17 A2997 RMK A01 T01800165  RH  096%=      5-min Rain = 0
KPPS 261155Z 13008KT 18/17 A2997 RMK A01 T01800166  RH  096%=      5-min Rain = 0
KPPS 261200Z 13007KT 18/17 A2997 RMK A01 T01810167  RH  096%=      5-min Rain = 0
KPPS 261205Z 13008KT 18/17 A2997 RMK A01 T01810168  RH  096%=      5-min Rain = 0
KPPS 261210Z 13008KT 18/17 A2997 RMK A01 T01820168  RH  096%=      5-min Rain = 0
KPPS 261215Z 13007KT 18/17 A2998 RMK A01 T01830169  RH  096%=      5-min Rain = 0
KPPS 261220Z 13007KT 18/17 A2998 RMK A01 T01840170  RH  096%=      5-min Rain = 0
KPPS 261225Z 13006KT 18/17 A2998 RMK A01 T01840171  RH  097%=      5-min Rain = 0
KPPS 261230Z 13007KT 19/17 A2998 RMK A01 T01850171  RH  097%=      5-min Rain = 0
KPPS 261235Z 14008KT 19/17 A2998 RMK A01 T01860172  RH  097%=      5-min Rain = 0
KPPS 261240Z 14008KT 19/17 A2999 RMK A01 T01870174  RH  097%=      5-min Rain = 0
KPPS 261245Z 14008KT 19/18 A2999 RMK A01 T01890175  RH  096%=      5-min Rain = 0
KPPS 261250Z 14008KT 19/18 A2999 RMK A01 T01900176  RH  096%=      5-min Rain = 0
KPPS 261255Z 15009KT 19/18 A2999 RMK A01 T01910176  RH  096%=      5-min Rain = 0
KPPS 261300Z 14010KT 19/18 A2999 RMK A01 T01920177  RH  096%=      5-min Rain = 0
KPPS 261305Z 15010KT 19/18 A2999 RMK A01 T01920177  RH  095%=      5-min Rain = 0
KPPS 261310Z 15009KT 19/18 A2999 RMK A01 T01930177  RH  095%=      5-min Rain = 0
KPPS 261315Z 14010KT 19/18 A2999 RMK A01 T01940177  RH  095%=      5-min Rain = 0
KPPS 261320Z 15010KT 19/18 A2999 RMK A01 T01940177  RH  095%=      5-min Rain = 0
KPPS 261325Z 15010KT 20/18 A2999 RMK A01 T01950178  RH  095%=      5-min Rain = 0
KPPS 261330Z 15010KT 20/18 A30 RMK A01 T01970179  RH  094%=      5-min Rain = 0
KPPS 261335Z 15011KT 20/18 A30 RMK A01 T01980179  RH  094%=      5-min Rain = 0
KPPS 261340Z 15010KT 20/18 A30 RMK A01 T01990179  RH  093%=      5-min Rain = 0
KPPS 261345Z 15010KT 20/18 A30 RMK A01 T02000179  RH  093%=      5-min Rain = 0
KPPS 261350Z 15010KT 20/18 A30 RMK A01 T02010179  RH  092%=      5-min Rain = 0
KPPS 261355Z 15010KT 20/18 A30 RMK A01 T02030180  RH  092%=      5-min Rain = 0
KPPS 261400Z 15010KT 20/18 A30 RMK A01 T02030180  RH  091%=      5-min Rain = 0
KPPS 261405Z 15011KT 20/18 A30 RMK A01 T02040180  RH  090%=      5-min Rain = 0
KPPS 261410Z 15012KT 21/18 A30 RMK A01 T02050179  RH  090%=      5-min Rain = 0
KPPS 261415Z 16012KT 21/18 A3001 RMK A01 T02060179  RH  089%=      5-min Rain = 0
KPPS 261420Z 16013KT 21/18 A3001 RMK A01 T02060178  RH  088%=      5-min Rain = 0
KPPS 261425Z 16010KT 21/18 A3001 RMK A01 T02070178  RH  088%=      5-min Rain = 0
KPPS 261430Z 16012G19KT 21/18 A3001 RMK A01 T02070178  RH  088%=      5-min Rain = 0
KPPS 261435Z 16013KT 21/18 A3001 RMK A01 T02080177  RH  087%=      5-min Rain = 0
KPPS 261440Z 16013KT 21/18 A3001 RMK A01 T02080177  RH  086%=      5-min Rain = 0
KPPS 261445Z 16012KT 21/18 A3001 RMK A01 T02080177  RH  086%=      5-min Rain = 0
KPPS 261450Z 16012KT 21/18 A3001 RMK A01 T02090177  RH  086%=      5-min Rain = 0
KPPS 261455Z 16013KT 21/18 A3001 RMK A01 T02100177  RH  085%=      5-min Rain = 0
KPPS 261500Z 16012G17KT 21/18 A3001 RMK A01 T02110177  RH  085%=      5-min Rain = 0
KPPS 261505Z 16015KT 21/18 A3001 RMK A01 T02110176  RH  084%=      5-min Rain = 0
KPPS 261510Z 16013KT 21/18 A3001 RMK A01 T02120176  RH  084%=      5-min Rain = 0
KPPS 261515Z 16014KT 21/18 A3001 RMK A01 T02130176  RH  084%=      5-min Rain = 0
KPPS 261520Z 16014KT 21/18 A3001 RMK A01 T02130176  RH  083%=      5-min Rain = 0
KPPS 261525Z 16012KT 22/18 A3001 RMK A01 T02150177  RH  083%=      5-min Rain = 0
KPPS 261530Z 17015G22KT 22/18 A3001 RMK A01 T02150176  RH  082%=      5-min Rain = 0
KPPS 261535Z 16015KT 22/18 A3001 RMK A01 T02150175  RH  082%=      5-min Rain = 0
KPPS 261540Z 16014KT 22/18 A3001 RMK A01 T02180177  RH  082%=      5-min Rain = 0
KPPS 261545Z 16015G20KT 22/18 A3001 RMK A01 T02180176  RH  081%=      5-min Rain = 0
KPPS 261550Z 16015KT 22/18 A3001 RMK A01 T02180175  RH  081%=      5-min Rain = 0
KPPS 261555Z 16014G20KT 22/18 A3001 RMK A01 T02190176  RH  081%=      5-min Rain = 0
KPPS 261600Z 16013G18KT 22/18 A30 RMK A01 T02220176  RH  080%=      5-min Rain = 0
KPPS 261605Z 17015KT 22/18 A3001 RMK A01 T02230177  RH  079%=      5-min Rain = 0
KPPS 261610Z 17014KT 22/18 A3001 RMK A01 T02240177  RH  079%=      5-min Rain = 0
KPPS 261615Z 16014G20KT 22/18 A3001 RMK A01 T02230176  RH  079%=      5-min Rain = 0
KPPS 261620Z 16015KT 22/18 A3001 RMK A01 T02220175  RH  079%=      5-min Rain = 0
KPPS 261625Z 16015KT 22/18 A3001 RMK A01 T02210176  RH  080%=      5-min Rain = 0
KPPS 261630Z 16013G18KT 22/18 A30 RMK A01 T02230177  RH  080%=      5-min Rain = 0
KPPS 261635Z 16012KT 23/18 A3001 RMK A01 T02250178  RH  079%=      5-min Rain = 0
KPPS 261640Z 17013G18KT 23/18 A3001 RMK A01 T02250177  RH  078%=      5-min Rain = 0
KPPS 261645Z 17014KT 22/18 A3001 RMK A01 T02240176  RH  078%=      5-min Rain = 0
KPPS 261650Z 16014KT 23/18 A30 RMK A01 T02250177  RH  078%=      5-min Rain = 0
KPPS 261655Z 16014KT 23/18 A30 RMK A01 T02280177  RH  077%=      5-min Rain = 0
KPPS 261700Z 17015KT 23/18 A30 RMK A01 T02300176  RH  076%=      5-min Rain = 0
KPPS 261705Z 17014KT 23/18 A30 RMK A01 T02300176  RH  075%=      5-min Rain = 0
KPPS 261710Z 17014KT 23/18 A30 RMK A01 T02310177  RH  075%=      5-min Rain = 0
KPPS 261715Z 16013KT 23/18 A30 RMK A01 T02330177  RH  074%=      5-min Rain = 0
KPPS 261720Z 17015G20KT 23/18 A30 RMK A01 T02340176  RH  074%=      5-min Rain = 0
KPPS 261725Z 18016KT 23/18 A30 RMK A01 T02340175  RH  073%=      5-min Rain = 0
KPPS 261730Z 18015KT 23/18 A30 RMK A01 T02340176  RH  073%=      5-min Rain = 0
KPPS 261735Z 18015KT 23/18 A3001 RMK A01 T02330175  RH  074%=      5-min Rain = 0
KPPS 261740Z 19015KT 23/18 A3002 RMK A01 T02320176  RH  074%=      5-min Rain = 0
KPPS 261745Z 19014G19KT 23/18 A3002 RMK A01 T02310176  RH  075%=      5-min Rain = 0
KPPS 261750Z 19013G18KT 23/18 A3002 RMK A01 T02310176  RH  075%=      5-min Rain = 0
KPPS 261755Z 19011G16KT 23/18 A3002 RMK A01 T02310178  RH  076%=      5-min Rain = 0
KPPS 261800Z 18010KT 23/18 A3002 RMK A01 T02300178  RH  076%=      5-min Rain = 0
KPPS 261805Z 17009KT 23/18 A3001 RMK A01 T02300177  RH  076%=      5-min Rain = 0
KPPS 261810Z 18008KT 23/18 A3001 RMK A01 T02290178  RH  077%=      5-min Rain = 0
KPPS 261815Z 17008KT 23/18 A30 RMK A01 T02290177  RH  077%=      5-min Rain = 0
KPPS 261820Z 15008G15KT 23/18 A30 RMK A01 T02280178  RH  077%=      5-min Rain = 0
KPPS 261825Z 18016G21KT 23/18 A3004 RMK A01 T02280178  RH  077%=      5-min Rain = 0
KPPS 261830Z 19017KT 23/18 A3005 RMK A01 T02290179  RH  077%=      5-min Rain = 0
KPPS 261835Z 19011G18KT 23/18 A3003 RMK A01 T02280179  RH  078%=      5-min Rain = 0
KPPS 261840Z 20011G17KT 23/18 A3003 RMK A01 T02250181  RH  080%=      5-min Rain = 0
KPPS 261845Z 18009KT 22/18 A3003 RMK A01 T02220184  RH  083%=      5-min Rain = 0
KPPS 261850Z 20004KT 22/19 A3001 RMK A01 T02220186  RH  084%=      5-min Rain = 0
KPPS 261855Z 17005KT 22/19 A3001 RMK A01 T02240187  RH  084%=      5-min Rain = 0
KPPS 261900Z 17004KT 23/18 A30 RMK A01 T02260184  RH  082%=      5-min Rain = 0
KPPS 261905Z 22003KT 23/18 A2999 RMK A01 T02270183  RH  080%=      5-min Rain = 0
KPPS 261910Z 15008G17KT 23/19 A2999 RMK A01 T02290187  RH  081%=      5-min Rain = 0
KPPS 261915Z 14015KT 23/19 A3001 RMK A01 T02300186  RH  081%=      5-min Rain = 0
KPPS 261920Z 14013G18KT 23/18 A2999 RMK A01 T02300183  RH  079%=      5-min Rain = 0
KPPS 261925Z 13010KT 23/18 A2998 RMK A01 T02300181  RH  078%=      5-min Rain = 0
KPPS 261930Z 13011KT 23/18 A2998 RMK A01 T02300183  RH  079%=      5-min Rain = 0
KPPS 261935Z 13012KT 23/18 A2998 RMK A01 T02300184  RH  079%=      5-min Rain = 0
KPPS 261940Z 14005KT 23/18 A2997 RMK A01 T02310183  RH  079%=      5-min Rain = 0
KPPS 261945Z 21005KT 23/18 A2998 RMK A01 T02330183  RH  078%=      5-min Rain = 0
KPPS 261950Z 18007KT 23/18 A2998 RMK A01 T02340184  RH  078%=      5-min Rain = 0
KPPS 261955Z 17009KT 24/18 A2998 RMK A01 T02350183  RH  077%=      5-min Rain = 0
KPPS 262000Z 15013KT 24/18 A2998 RMK A01 T02350181  RH  075%=      5-min Rain = 0
KPPS 262005Z 15014G20KT 23/18 A2999 RMK A01 T02340181  RH  076%=      5-min Rain = 0
KPPS 262010Z 14013KT 23/18 A2998 RMK A01 T02340182  RH  077%=      5-min Rain = 0
KPPS 262015Z 15013KT 23/18 A2998 RMK A01 T02330181  RH  077%=      5-min Rain = 0
KPPS 262020Z 16011KT 24/18 A2997 RMK A01 T02350182  RH  076%=      5-min Rain = 0
KPPS 262025Z 14009KT 24/18 A2995 RMK A01 T02370182  RH  075%=      5-min Rain = 0
KPPS 262030Z 13013KT 24/18 A2994 RMK A01 T02390183  RH  075%=      5-min Rain = 0
KPPS 262035Z 13015KT 24/18 A2994 RMK A01 T02380181  RH  074%=      5-min Rain = 0
KPPS 262040Z 13015G22KT 24/18 A2994 RMK A01 T02370180  RH  074%=      5-min Rain = 0
KPPS 262045Z 14015KT 24/18 A2994 RMK A01 T02390181  RH  074%=      5-min Rain = 0
KPPS 262050Z 15013KT 24/18 A2994 RMK A01 T02410180  RH  073%=      5-min Rain = 0
KPPS 262055Z 15013KT 24/18 A2993 RMK A01 T02410179  RH  072%=      5-min Rain = 0
KPPS 262100Z 15014KT 24/18 A2993 RMK A01 T02400177  RH  071%=      5-min Rain = 0
KPPS 262105Z 15014KT 24/18 A2993 RMK A01 T02400178  RH  072%=      5-min Rain = 0
KPPS 262110Z 15015KT 24/18 A2993 RMK A01 T02390177  RH  072%=      5-min Rain = 0
KPPS 262115Z 14017G23KT 24/18 A2992 RMK A01 T02380177  RH  073%=      5-min Rain = 0
KPPS 262120Z 16017G22KT 24/18 A2993 RMK A01 T02410178  RH  072%=      5-min Rain = 0
KPPS 262125Z 15016G21KT 24/18 A2994 RMK A01 T02440179  RH  071%=      5-min Rain = 0
KPPS 262130Z 15017KT 25/18 A2993 RMK A01 T02450180  RH  071%=      5-min Rain = 0
KPPS 262135Z 15018G23KT 25/18 A2993 RMK A01 T02470179  RH  069%=      5-min Rain = 0
KPPS 262140Z 15018G24KT 25/18 A2992 RMK A01 T02490179  RH  069%=      5-min Rain = 0
KPPS 262145Z 15019G25KT 25/18 A2992 RMK A01 T02500179  RH  068%=      5-min Rain = 0
KPPS 262150Z 15021G26KT 25/18 A2992 RMK A01 T02490177  RH  068%=      5-min Rain = 0
KPPS 262155Z 15019G27KT 25/18 A2992 RMK A01 T02520180  RH  068%=      5-min Rain = 0
KPPS 262200Z 15022KT 26/18 A2991 RMK A01 T02550179  RH  066%=      5-min Rain = 0
KPPS 262205Z 15021G27KT 26/18 A2991 RMK A01 T02590180  RH  065%=      5-min Rain = 0
KPPS 262210Z 15021G29KT 26/18 A2991 RMK A01 T02610179  RH  064%=      5-min Rain = 0
KPPS 262215Z 15019G26KT 26/18 A2991 RMK A01 T02640182  RH  064%=      5-min Rain = 0
KPPS 262220Z 14022G29KT 26/18 A2991 RMK A01 T02570184  RH  067%=      5-min Rain = 0
KPPS 262225Z 14021G27KT 26/18 A2991 RMK A01 T02570183  RH  067%=      5-min Rain = 0
KPPS 262230Z 14022G30KT 26/18 A2991 RMK A01 T02550182  RH  067%=      5-min Rain = 0
KPPS 262235Z 14022G28KT 25/18 A2991 RMK A01 T02510180  RH  068%=      5-min Rain = 0
KPPS 262240Z 15022G30KT 25/18 A2991 RMK A01 T02530182  RH  068%=      5-min Rain = 0
KPPS 262245Z 14022G27KT 25/18 A299 RMK A01 T02510180  RH  068%=      5-min Rain = 0
KPPS 262250Z 14020G26KT 26/18 A299 RMK A01 T02570181  RH  066%=      5-min Rain = 0
KPPS 262255Z 14020G27KT 26/18 A299 RMK A01 T02610180  RH  064%=      5-min Rain = 0
KPPS 262300Z 14021G27KT 26/18 A2989 RMK A01 T02580179  RH  065%=      5-min Rain = 0
KPPS 262305Z 15020G25KT 26/18 A2989 RMK A01 T02580179  RH  065%=      5-min Rain = 0
KPPS 262310Z 15020G25KT 26/18 A299 RMK A01 T02580177  RH  064%=      5-min Rain = 0
KPPS 262315Z 15019G24KT 26/18 A2989 RMK A01 T02580175  RH  063%=      5-min Rain = 0
KPPS 262320Z 15019G25KT 26/18 A2989 RMK A01 T02560176  RH  064%=      5-min Rain = 0
KPPS 262325Z 15020G26KT 26/17 A2989 RMK A01 T02580174  RH  063%=      5-min Rain = 0
KPPS 262330Z 15022G30KT 26/18 A2989 RMK A01 T02560175  RH  064%=      5-min Rain = 0
KPPS 262335Z 14024G29KT 26/17 A2988 RMK A01 T02550173  RH  064%=      5-min Rain = 0
KPPS 262340Z 15023G28KT 25/17 A2988 RMK A01 T02540174  RH  065%=      5-min Rain = 0
KPPS 262345Z 14021G26KT 25/18 A2988 RMK A01 T02540175  RH  065%=      5-min Rain = 0
KPPS 262350Z 15021G27KT 25/17 A2987 RMK A01 T02540174  RH  064%=      5-min Rain = 0
KPPS 262355Z 15023G28KT 25/17 A2987 RMK A01 T02530172  RH  064%=      5-min Rain = 0
KPPS 270000Z 15022G28KT 25/17 A2987 RMK A01 T02530173  RH  065%=      5-min Rain = 0
KPPS 270005Z 14018G25KT 25/18 A2987 RMK A01 T02540176  RH  065%=      5-min Rain = 0
KPPS 270010Z 14023G29KT 25/18 A2986 RMK A01 T02530176  RH  066%=      5-min Rain = 0
KPPS 270015Z 15023G29KT 25/18 A2986 RMK A01 T02500175  RH  067%=      5-min Rain = 0
KPPS 270020Z 15022G28KT 25/17 A2986 RMK A01 T02490174  RH  066%=      5-min Rain = 0
KPPS 270025Z 14021G28KT 25/18 A2986 RMK A01 T02490175  RH  067%=      5-min Rain = 0
KPPS 270030Z 14022G27KT 25/18 A2986 RMK A01 T02480175  RH  067%=      5-min Rain = 0
KPPS 270035Z 15021G27KT 25/17 A2985 RMK A01 T02480174  RH  067%=      5-min Rain = 0
KPPS 270040Z 15021G27KT 25/17 A2985 RMK A01 T02470173  RH  067%=      5-min Rain = 0
KPPS 270045Z 15020G28KT 25/17 A2985 RMK A01 T02460173  RH  067%=      5-min Rain = 0
KPPS 270050Z 15021G26KT 24/17 A2985 RMK A01 T02440174  RH  068%=      5-min Rain = 0
KPPS 270055Z 15020G27KT 24/18 A2985 RMK A01 T02410175  RH  070%=      5-min Rain = 0
KPPS 270100Z 15019G25KT 24/18 A2985 RMK A01 T02400176  RH  071%=      5-min Rain = 0
KPPS 270105Z 15020G27KT 24/18 A2985 RMK A01 T02400176  RH  071%=      5-min Rain = 0
KPPS 270110Z 15019G28KT 24/18 A2985 RMK A01 T02410176  RH  071%=      5-min Rain = 0
KPPS 270115Z 15020G25KT 24/18 A2985 RMK A01 T02400177  RH  071%=      5-min Rain = 0
KPPS 270120Z 15020G26KT 24/18 A2985 RMK A01 T02380176  RH  072%=      5-min Rain = 0
KPPS 270125Z 15019G25KT 24/18 A2985 RMK A01 T02360176  RH  073%=      5-min Rain = 0
KPPS 270130Z 15021G27KT 24/18 A2985 RMK A01 T02350176  RH  073%=      5-min Rain = 0
KPPS 270135Z 15021KT 24/18 A2985 RMK A01 T02350175  RH  072%=      5-min Rain = 0
KPPS 270140Z 15019G25KT 24/17 A2985 RMK A01 T02350174  RH  072%=      5-min Rain = 0
KPPS 270145Z 15019G26KT 23/17 A2985 RMK A01 T02330174  RH  073%=      5-min Rain = 0
KPPS 270150Z 15019G24KT 23/17 A2984 RMK A01 T02320173  RH  073%=      5-min Rain = 0
KPPS 270155Z 15019G26KT 23/17 A2984 RMK A01 T02320173  RH  073%=      5-min Rain = 0
KPPS 270200Z 15017G23KT 23/17 A2985 RMK A01 T02310173  RH  074%=      5-min Rain = 0
KPPS 270205Z 15016G21KT 23/17 A2985 RMK A01 T02290173  RH  075%=      5-min Rain = 0
KPPS 270210Z 15018G23KT 23/17 A2985 RMK A01 T02280172  RH  074%=      5-min Rain = 0
KPPS 270215Z 16019G24KT 23/17 A2985 RMK A01 T02280172  RH  074%=      5-min Rain = 0
KPPS 270220Z 16020G26KT 23/17 A2986 RMK A01 T02290172  RH  074%=      5-min Rain = 0
KPPS 270225Z 15016KT 23/17 A2986 RMK A01 T02280172  RH  075%=      5-min Rain = 0
KPPS 270230Z 15017G22KT 23/17 A2987 RMK A01 T02270172  RH  075%=      5-min Rain = 0
KPPS 270235Z 15016G24KT 23/17 A2987 RMK A01 T02260172  RH  076%=      5-min Rain = 0
KPPS 270240Z 15016G23KT 23/17 A2987 RMK A01 T02250173  RH  076%=      5-min Rain = 0
KPPS 270245Z 15016G22KT 22/17 A2987 RMK A01 T02230172  RH  077%=      5-min Rain = 0
KPPS 270250Z 15017G22KT 22/17 A2987 RMK A01 T02230172  RH  076%=      5-min Rain = 0
KPPS 270255Z 15016G22KT 22/17 A2987 RMK A01 T02220172  RH  077%=      5-min Rain = 0
KPPS 270300Z 15017G22KT 22/17 A2988 RMK A01 T02230172  RH  077%=      5-min Rain = 0
KPPS 270305Z 16018G25KT 22/17 A2988 RMK A01 T02220172  RH  077%=      5-min Rain = 0
KPPS 270310Z 15019G25KT 22/17 A2987 RMK A01 T02220172  RH  077%=      5-min Rain = 0
KPPS 270315Z 15019G24KT 22/17 A2987 RMK A01 T02210172  RH  077%=      5-min Rain = 0
KPPS 270320Z 16018G23KT 22/17 A2988 RMK A01 T02210172  RH  078%=      5-min Rain = 0
KPPS 270325Z 16018G23KT 22/17 A2988 RMK A01 T02200172  RH  078%=      5-min Rain = 0
KPPS 270330Z 16018G23KT 22/17 A2988 RMK A01 T02200172  RH  078%=      5-min Rain = 0
KPPS 270335Z 16016KT 22/17 A2988 RMK A01 T02190172  RH  078%=      5-min Rain = 0
KPPS 270340Z 16017G23KT 22/17 A2988 RMK A01 T02190171  RH  078%=      5-min Rain = 0
KPPS 270345Z 16015G21KT 22/17 A2989 RMK A01 T02180171  RH  078%=      5-min Rain = 0
KPPS 270350Z 17014G21KT 22/17 A2989 RMK A01 T02180170  RH  078%=      5-min Rain = 0
KPPS 270355Z 16016G21KT 22/17 A2989 RMK A01 T02170170  RH  078%=      5-min Rain = 0
KPPS 270400Z 16015G20KT 22/17 A2989 RMK A01 T02160169  RH  079%=      5-min Rain = 0
KPPS 270405Z 17014G21KT 21/17 A2989 RMK A01 T02140169  RH  079%=      5-min Rain = 0
KPPS 270410Z 17015G20KT 21/17 A2989 RMK A01 T02140168  RH  079%=      5-min Rain = 0
KPPS 270415Z 17013G18KT 21/17 A299 RMK A01 T02130168  RH  080%=      5-min Rain = 0
KPPS 270420Z 17014G20KT 21/17 A299 RMK A01 T02120168  RH  080%=      5-min Rain = 0
KPPS 270425Z 17012G19KT 21/17 A299 RMK A01 T02110168  RH  080%=      5-min Rain = 0
KPPS 270430Z 17014KT 21/17 A299 RMK A01 T02110167  RH  080%=      5-min Rain = 0
KPPS 270435Z 19010G16KT 21/17 A2991 RMK A01 T02100167  RH  080%=      5-min Rain = 0
KPPS 270440Z 22010KT 21/17 A2993 RMK A01 T02090167  RH  080%=      5-min Rain = 0
KPPS 270445Z 23010KT 21/17 A2993 RMK A01 T02070167  RH  082%=      5-min Rain = 0
KPPS 270450Z 23009KT 21/17 A2993 RMK A01 T02060166  RH  082%=      5-min Rain = 0
KPPS 270455Z 22010KT 21/17 A2993 RMK A01 T02060166  RH  082%=      5-min Rain = 0

Page generated in 0.0135 seconds.